sensor_id;sensor_type;location;lat;lon;timestamp;P1;durP1;ratioP1;P2;durP2;ratioP2
23410;SDS011;11878;51.774;7.220;2023-05-10T00:02:16;4.90;;;2.93;;
23410;SDS011;11878;51.774;7.220;2023-05-10T00:05:17;4.53;;;2.40;;
23410;SDS011;11878;51.774;7.220;2023-05-10T00:08:19;3.90;;;2.33;;
23410;SDS011;11878;51.774;7.220;2023-05-10T00:11:21;3.37;;;2.37;;
23410;SDS011;11878;51.774;7.220;2023-05-10T00:14:23;6.27;;;2.57;;
23410;SDS011;11878;51.774;7.220;2023-05-10T00:17:25;5.00;;;3.03;;
23410;SDS011;11878;51.774;7.220;2023-05-10T00:20:27;5.43;;;2.90;;
23410;SDS011;11878;51.774;7.220;2023-05-10T00:23:29;8.13;;;3.47;;
23410;SDS011;11878;51.774;7.220;2023-05-10T00:26:30;6.63;;;3.10;;
23410;SDS011;11878;51.774;7.220;2023-05-10T00:29:32;5.60;;;3.10;;
23410;SDS011;11878;51.774;7.220;2023-05-10T00:32:34;7.30;;;3.37;;
23410;SDS011;11878;51.774;7.220;2023-05-10T00:35:36;6.93;;;3.17;;
23410;SDS011;11878;51.774;7.220;2023-05-10T00:38:39;8.13;;;3.83;;
23410;SDS011;11878;51.774;7.220;2023-05-10T00:41:41;9.43;;;4.43;;
23410;SDS011;11878;51.774;7.220;2023-05-10T00:44:43;10.83;;;4.70;;
23410;SDS011;11878;51.774;7.220;2023-05-10T00:47:45;9.73;;;4.10;;
23410;SDS011;11878;51.774;7.220;2023-05-10T00:50:47;9.60;;;4.90;;
23410;SDS011;11878;51.774;7.220;2023-05-10T00:53:49;11.33;;;4.63;;
23410;SDS011;11878;51.774;7.220;2023-05-10T00:56:52;10.33;;;4.43;;
23410;SDS011;11878;51.774;7.220;2023-05-10T00:59:54;10.77;;;4.77;;
23410;SDS011;11878;51.774;7.220;2023-05-10T01:02:56;10.57;;;4.43;;
23410;SDS011;11878;51.774;7.220;2023-05-10T01:05:58;10.87;;;4.80;;
23410;SDS011;11878;51.774;7.220;2023-05-10T01:08:59;9.67;;;4.20;;
23410;SDS011;11878;51.774;7.220;2023-05-10T01:12:01;10.40;;;4.10;;
23410;SDS011;11878;51.774;7.220;2023-05-10T01:15:07;8.57;;;4.13;;
23410;SDS011;11878;51.774;7.220;2023-05-10T01:18:11;7.73;;;3.63;;
23410;SDS011;11878;51.774;7.220;2023-05-10T01:24:44;5.40;;;2.97;;
23410;SDS011;11878;51.774;7.220;2023-05-10T01:35:00;6.03;;;2.67;;
23410;SDS011;11878;51.774;7.220;2023-05-10T01:44:46;4.63;;;1.80;;
23410;SDS011;11878;51.774;7.220;2023-05-10T01:48:06;5.67;;;1.90;;
23410;SDS011;11878;51.774;7.220;2023-05-10T01:51:13;5.23;;;2.57;;
23410;SDS011;11878;51.774;7.220;2023-05-10T01:54:19;6.50;;;2.23;;
23410;SDS011;11878;51.774;7.220;2023-05-10T01:57:24;4.43;;;2.23;;
23410;SDS011;11878;51.774;7.220;2023-05-10T02:00:28;4.67;;;2.23;;
23410;SDS011;11878;51.774;7.220;2023-05-10T02:03:32;4.30;;;1.93;;
23410;SDS011;11878;51.774;7.220;2023-05-10T02:06:37;4.10;;;2.00;;
23410;SDS011;11878;51.774;7.220;2023-05-10T02:09:40;7.00;;;2.13;;
23410;SDS011;11878;51.774;7.220;2023-05-10T02:12:48;6.63;;;2.50;;
23410;SDS011;11878;51.774;7.220;2023-05-10T02:15:52;4.63;;;2.30;;
23410;SDS011;11878;51.774;7.220;2023-05-10T02:18:55;4.67;;;2.30;;
23410;SDS011;11878;51.774;7.220;2023-05-10T02:22:00;4.20;;;2.13;;
23410;SDS011;11878;51.774;7.220;2023-05-10T02:25:05;4.43;;;2.40;;
23410;SDS011;11878;51.774;7.220;2023-05-10T02:28:10;3.73;;;1.87;;
23410;SDS011;11878;51.774;7.220;2023-05-10T02:31:14;2.73;;;1.40;;
23410;SDS011;11878;51.774;7.220;2023-05-10T02:34:17;2.80;;;1.50;;
23410;SDS011;11878;51.774;7.220;2023-05-10T02:37:20;2.47;;;1.53;;
23410;SDS011;11878;51.774;7.220;2023-05-10T02:40:23;2.90;;;1.60;;
23410;SDS011;11878;51.774;7.220;2023-05-10T02:43:30;3.83;;;1.90;;
23410;SDS011;11878;51.774;7.220;2023-05-10T02:46:34;2.37;;;1.40;;
23410;SDS011;11878;51.774;7.220;2023-05-10T02:49:38;4.00;;;1.90;;
23410;SDS011;11878;51.774;7.220;2023-05-10T02:52:42;3.93;;;2.07;;
23410;SDS011;11878;51.774;7.220;2023-05-10T02:55:49;3.13;;;1.60;;
23410;SDS011;11878;51.774;7.220;2023-05-10T02:58:54;2.87;;;1.40;;
23410;SDS011;11878;51.774;7.220;2023-05-10T03:01:56;2.43;;;1.60;;
23410;SDS011;11878;51.774;7.220;2023-05-10T03:04:58;3.27;;;1.90;;
23410;SDS011;11878;51.774;7.220;2023-05-10T03:08:01;3.33;;;1.87;;
23410;SDS011;11878;51.774;7.220;2023-05-10T03:14:57;3.00;;;1.90;;
23410;SDS011;11878;51.774;7.220;2023-05-10T03:18:10;3.07;;;1.87;;
23410;SDS011;11878;51.774;7.220;2023-05-10T03:21:17;3.27;;;1.47;;
23410;SDS011;11878;51.774;7.220;2023-05-10T03:24:23;2.93;;;2.00;;
23410;SDS011;11878;51.774;7.220;2023-05-10T03:27:31;3.63;;;2.40;;
23410;SDS011;11878;51.774;7.220;2023-05-10T03:30:35;4.97;;;2.70;;
23410;SDS011;11878;51.774;7.220;2023-05-10T03:33:48;6.57;;;2.80;;
23410;SDS011;11878;51.774;7.220;2023-05-10T03:36:56;5.73;;;3.10;;
23410;SDS011;11878;51.774;7.220;2023-05-10T03:39:59;7.87;;;3.90;;
23410;SDS011;11878;51.774;7.220;2023-05-10T03:43:02;7.17;;;4.67;;
23410;SDS011;11878;51.774;7.220;2023-05-10T03:46:04;12.17;;;4.63;;
23410;SDS011;11878;51.774;7.220;2023-05-10T03:49:07;9.30;;;4.77;;
23410;SDS011;11878;51.774;7.220;2023-05-10T03:52:10;13.30;;;4.73;;
23410;SDS011;11878;51.774;7.220;2023-05-10T03:55:13;11.13;;;5.20;;
23410;SDS011;11878;51.774;7.220;2023-05-10T03:58:15;11.80;;;5.67;;
23410;SDS011;11878;51.774;7.220;2023-05-10T04:01:17;15.27;;;6.97;;
23410;SDS011;11878;51.774;7.220;2023-05-10T04:04:20;16.00;;;7.80;;
23410;SDS011;11878;51.774;7.220;2023-05-10T04:07:23;24.60;;;8.73;;
23410;SDS011;11878;51.774;7.220;2023-05-10T04:10:25;28.40;;;9.97;;
23410;SDS011;11878;51.774;7.220;2023-05-10T04:13:27;23.00;;;9.20;;
23410;SDS011;11878;51.774;7.220;2023-05-10T04:16:30;22.77;;;9.97;;
23410;SDS011;11878;51.774;7.220;2023-05-10T04:19:32;25.93;;;10.97;;
23410;SDS011;11878;51.774;7.220;2023-05-10T04:22:34;29.60;;;11.97;;
23410;SDS011;11878;51.774;7.220;2023-05-10T04:25:36;27.73;;;11.57;;
23410;SDS011;11878;51.774;7.220;2023-05-10T04:28:38;26.47;;;11.03;;
23410;SDS011;11878;51.774;7.220;2023-05-10T04:31:40;30.00;;;11.37;;
23410;SDS011;11878;51.774;7.220;2023-05-10T04:34:42;28.53;;;12.63;;
23410;SDS011;11878;51.774;7.220;2023-05-10T04:37:44;35.13;;;13.43;;
23410;SDS011;11878;51.774;7.220;2023-05-10T04:40:46;32.70;;;13.37;;
23410;SDS011;11878;51.774;7.220;2023-05-10T04:43:48;29.37;;;13.07;;
23410;SDS011;11878;51.774;7.220;2023-05-10T04:46:50;38.13;;;13.63;;
23410;SDS011;11878;51.774;7.220;2023-05-10T04:49:52;32.77;;;13.77;;
23410;SDS011;11878;51.774;7.220;2023-05-10T04:52:54;31.13;;;14.43;;
23410;SDS011;11878;51.774;7.220;2023-05-10T04:55:56;34.03;;;14.63;;
23410;SDS011;11878;51.774;7.220;2023-05-10T04:58:58;38.67;;;16.00;;
23410;SDS011;11878;51.774;7.220;2023-05-10T05:02:00;38.27;;;15.47;;
23410;SDS011;11878;51.774;7.220;2023-05-10T05:05:02;35.83;;;15.83;;
23410;SDS011;11878;51.774;7.220;2023-05-10T05:08:04;38.20;;;15.97;;
23410;SDS011;11878;51.774;7.220;2023-05-10T05:11:06;38.50;;;15.77;;
23410;SDS011;11878;51.774;7.220;2023-05-10T05:14:08;34.47;;;15.50;;
23410;SDS011;11878;51.774;7.220;2023-05-10T05:17:10;38.43;;;16.73;;
23410;SDS011;11878;51.774;7.220;2023-05-10T05:20:12;37.60;;;16.63;;
23410;SDS011;11878;51.774;7.220;2023-05-10T05:23:14;42.17;;;16.53;;
23410;SDS011;11878;51.774;7.220;2023-05-10T05:26:16;44.30;;;19.30;;
23410;SDS011;11878;51.774;7.220;2023-05-10T05:29:18;47.63;;;20.93;;
23410;SDS011;11878;51.774;7.220;2023-05-10T05:32:20;53.17;;;22.20;;
23410;SDS011;11878;51.774;7.220;2023-05-10T05:35:22;49.60;;;19.17;;
23410;SDS011;11878;51.774;7.220;2023-05-10T05:38:24;47.33;;;19.20;;
23410;SDS011;11878;51.774;7.220;2023-05-10T05:41:25;46.67;;;19.50;;
23410;SDS011;11878;51.774;7.220;2023-05-10T05:44:27;48.83;;;19.93;;
23410;SDS011;11878;51.774;7.220;2023-05-10T05:47:30;50.03;;;20.80;;
23410;SDS011;11878;51.774;7.220;2023-05-10T05:50:32;50.37;;;20.10;;
23410;SDS011;11878;51.774;7.220;2023-05-10T05:53:33;43.33;;;19.20;;
23410;SDS011;11878;51.774;7.220;2023-05-10T05:56:35;44.97;;;19.43;;
23410;SDS011;11878;51.774;7.220;2023-05-10T05:59:38;44.40;;;18.17;;
23410;SDS011;11878;51.774;7.220;2023-05-10T06:02:44;41.70;;;18.70;;
23410;SDS011;11878;51.774;7.220;2023-05-10T06:05:47;40.60;;;18.20;;
23410;SDS011;11878;51.774;7.220;2023-05-10T06:08:48;41.63;;;17.20;;
23410;SDS011;11878;51.774;7.220;2023-05-10T06:11:50;39.03;;;17.23;;
23410;SDS011;11878;51.774;7.220;2023-05-10T06:14:52;40.97;;;16.87;;
23410;SDS011;11878;51.774;7.220;2023-05-10T06:17:54;41.67;;;18.03;;
23410;SDS011;11878;51.774;7.220;2023-05-10T06:20:56;42.37;;;17.60;;
23410;SDS011;11878;51.774;7.220;2023-05-10T06:23:58;40.97;;;17.83;;
23410;SDS011;11878;51.774;7.220;2023-05-10T06:27:00;39.33;;;18.30;;
23410;SDS011;11878;51.774;7.220;2023-05-10T06:30:03;40.57;;;18.10;;
23410;SDS011;11878;51.774;7.220;2023-05-10T06:33:13;35.43;;;16.77;;
23410;SDS011;11878;51.774;7.220;2023-05-10T06:36:17;41.97;;;17.87;;
23410;SDS011;11878;51.774;7.220;2023-05-10T06:39:19;41.03;;;18.40;;
23410;SDS011;11878;51.774;7.220;2023-05-10T06:42:21;48.00;;;20.00;;
23410;SDS011;11878;51.774;7.220;2023-05-10T06:45:22;41.53;;;19.67;;
23410;SDS011;11878;51.774;7.220;2023-05-10T06:48:24;46.57;;;19.53;;
23410;SDS011;11878;51.774;7.220;2023-05-10T06:51:26;47.37;;;20.33;;
23410;SDS011;11878;51.774;7.220;2023-05-10T06:54:28;48.33;;;20.53;;
23410;SDS011;11878;51.774;7.220;2023-05-10T06:57:30;50.37;;;21.97;;
23410;SDS011;11878;51.774;7.220;2023-05-10T07:00:32;49.20;;;19.80;;
23410;SDS011;11878;51.774;7.220;2023-05-10T07:03:34;43.30;;;21.37;;
23410;SDS011;11878;51.774;7.220;2023-05-10T07:06:36;48.73;;;21.97;;
23410;SDS011;11878;51.774;7.220;2023-05-10T07:09:38;47.13;;;20.23;;
23410;SDS011;11878;51.774;7.220;2023-05-10T07:12:40;45.73;;;21.17;;
23410;SDS011;11878;51.774;7.220;2023-05-10T07:15:42;49.13;;;21.17;;
23410;SDS011;11878;51.774;7.220;2023-05-10T07:18:44;39.87;;;19.50;;
23410;SDS011;11878;51.774;7.220;2023-05-10T07:21:46;41.80;;;18.77;;
23410;SDS011;11878;51.774;7.220;2023-05-10T07:24:47;40.53;;;19.63;;
23410;SDS011;11878;51.774;7.220;2023-05-10T07:27:50;38.13;;;18.13;;
23410;SDS011;11878;51.774;7.220;2023-05-10T07:30:52;37.50;;;18.00;;
23410;SDS011;11878;51.774;7.220;2023-05-10T07:33:54;39.23;;;17.97;;
23410;SDS011;11878;51.774;7.220;2023-05-10T07:36:57;32.17;;;16.50;;
23410;SDS011;11878;51.774;7.220;2023-05-10T07:40:00;38.03;;;17.10;;
23410;SDS011;11878;51.774;7.220;2023-05-10T07:43:02;40.50;;;18.83;;
23410;SDS011;11878;51.774;7.220;2023-05-10T07:46:04;37.80;;;18.53;;
23410;SDS011;11878;51.774;7.220;2023-05-10T07:49:06;38.13;;;18.00;;
23410;SDS011;11878;51.774;7.220;2023-05-10T07:52:08;40.77;;;18.13;;
23410;SDS011;11878;51.774;7.220;2023-05-10T07:55:10;39.50;;;18.23;;
23410;SDS011;11878;51.774;7.220;2023-05-10T07:58:12;38.93;;;17.07;;
23410;SDS011;11878;51.774;7.220;2023-05-10T08:01:13;37.63;;;18.03;;
23410;SDS011;11878;51.774;7.220;2023-05-10T08:04:15;31.77;;;16.00;;
23410;SDS011;11878;51.774;7.220;2023-05-10T08:07:17;32.50;;;16.83;;
23410;SDS011;11878;51.774;7.220;2023-05-10T08:10:19;36.73;;;17.23;;
23410;SDS011;11878;51.774;7.220;2023-05-10T08:13:21;30.80;;;16.60;;
23410;SDS011;11878;51.774;7.220;2023-05-10T08:16:23;30.43;;;16.30;;
23410;SDS011;11878;51.774;7.220;2023-05-10T08:19:25;34.97;;;17.40;;
23410;SDS011;11878;51.774;7.220;2023-05-10T08:22:26;33.47;;;17.20;;
23410;SDS011;11878;51.774;7.220;2023-05-10T08:25:28;33.47;;;16.67;;
23410;SDS011;11878;51.774;7.220;2023-05-10T08:28:30;39.10;;;18.17;;
23410;SDS011;11878;51.774;7.220;2023-05-10T08:31:32;33.33;;;17.30;;
23410;SDS011;11878;51.774;7.220;2023-05-10T08:34:34;32.93;;;17.47;;
23410;SDS011;11878;51.774;7.220;2023-05-10T08:37:36;33.53;;;17.40;;
23410;SDS011;11878;51.774;7.220;2023-05-10T08:40:39;38.27;;;15.97;;
23410;SDS011;11878;51.774;7.220;2023-05-10T08:43:43;26.87;;;15.87;;
23410;SDS011;11878;51.774;7.220;2023-05-10T08:46:47;33.70;;;15.90;;
23410;SDS011;11878;51.774;7.220;2023-05-10T08:49:54;26.57;;;14.37;;
23410;SDS011;11878;51.774;7.220;2023-05-10T08:52:59;24.97;;;13.57;;
23410;SDS011;11878;51.774;7.220;2023-05-10T08:56:03;26.13;;;14.03;;
23410;SDS011;11878;51.774;7.220;2023-05-10T08:59:05;30.03;;;14.73;;
23410;SDS011;11878;51.774;7.220;2023-05-10T09:02:08;26.67;;;14.67;;
23410;SDS011;11878;51.774;7.220;2023-05-10T09:05:12;28.60;;;15.30;;
23410;SDS011;11878;51.774;7.220;2023-05-10T09:08:17;29.60;;;16.03;;
23410;SDS011;11878;51.774;7.220;2023-05-10T09:11:20;29.70;;;15.63;;
23410;SDS011;11878;51.774;7.220;2023-05-10T09:14:23;27.83;;;14.63;;
23410;SDS011;11878;51.774;7.220;2023-05-10T09:17:25;34.80;;;17.00;;
23410;SDS011;11878;51.774;7.220;2023-05-10T09:20:30;29.83;;;15.97;;
23410;SDS011;11878;51.774;7.220;2023-05-10T09:23:32;31.00;;;15.83;;
23410;SDS011;11878;51.774;7.220;2023-05-10T09:26:34;31.83;;;16.00;;
23410;SDS011;11878;51.774;7.220;2023-05-10T09:29:41;31.60;;;16.90;;
23410;SDS011;11878;51.774;7.220;2023-05-10T09:32:44;31.00;;;16.93;;
23410;SDS011;11878;51.774;7.220;2023-05-10T09:35:47;29.13;;;15.30;;
23410;SDS011;11878;51.774;7.220;2023-05-10T09:38:53;33.13;;;15.80;;
23410;SDS011;11878;51.774;7.220;2023-05-10T09:41:55;32.50;;;16.40;;
23410;SDS011;11878;51.774;7.220;2023-05-10T09:45:01;31.93;;;15.67;;
23410;SDS011;11878;51.774;7.220;2023-05-10T09:48:06;35.63;;;15.50;;
23410;SDS011;11878;51.774;7.220;2023-05-10T09:51:08;31.93;;;14.13;;
23410;SDS011;11878;51.774;7.220;2023-05-10T09:54:11;25.03;;;14.33;;
23410;SDS011;11878;51.774;7.220;2023-05-10T09:57:18;29.33;;;14.27;;
23410;SDS011;11878;51.774;7.220;2023-05-10T10:00:23;25.87;;;13.37;;
23410;SDS011;11878;51.774;7.220;2023-05-10T10:03:25;24.70;;;13.30;;
23410;SDS011;11878;51.774;7.220;2023-05-10T10:06:34;29.00;;;14.83;;
23410;SDS011;11878;51.774;7.220;2023-05-10T10:09:40;26.13;;;13.00;;
23410;SDS011;11878;51.774;7.220;2023-05-10T10:12:43;24.23;;;14.20;;
23410;SDS011;11878;51.774;7.220;2023-05-10T10:15:45;32.40;;;15.20;;
23410;SDS011;11878;51.774;7.220;2023-05-10T10:18:52;30.47;;;13.87;;
23410;SDS011;11878;51.774;7.220;2023-05-10T10:21:54;32.60;;;14.07;;
23410;SDS011;11878;51.774;7.220;2023-05-10T10:24:56;32.23;;;14.07;;
23410;SDS011;11878;51.774;7.220;2023-05-10T10:28:02;25.00;;;13.63;;
23410;SDS011;11878;51.774;7.220;2023-05-10T10:31:57;28.37;;;14.13;;
23410;SDS011;11878;51.774;7.220;2023-05-10T10:35:22;26.30;;;13.33;;
23410;SDS011;11878;51.774;7.220;2023-05-10T10:38:24;23.93;;;12.30;;
23410;SDS011;11878;51.774;7.220;2023-05-10T10:41:28;25.13;;;13.63;;
23410;SDS011;11878;51.774;7.220;2023-05-10T10:44:36;22.03;;;12.60;;
23410;SDS011;11878;51.774;7.220;2023-05-10T10:47:39;26.67;;;13.43;;
23410;SDS011;11878;51.774;7.220;2023-05-10T10:50:44;25.70;;;13.63;;
23410;SDS011;11878;51.774;7.220;2023-05-10T10:53:48;28.07;;;13.07;;
23410;SDS011;11878;51.774;7.220;2023-05-10T11:03:29;26.53;;;13.63;;
23410;SDS011;11878;51.774;7.220;2023-05-10T11:06:32;30.27;;;14.57;;
23410;SDS011;11878;51.774;7.220;2023-05-10T11:09:39;28.33;;;13.03;;
23410;SDS011;11878;51.774;7.220;2023-05-10T11:16:22;25.13;;;13.27;;
23410;SDS011;11878;51.774;7.220;2023-05-10T11:19:27;26.33;;;13.67;;
23410;SDS011;11878;51.774;7.220;2023-05-10T11:22:29;23.73;;;11.03;;
23410;SDS011;11878;51.774;7.220;2023-05-10T11:25:52;21.23;;;11.17;;
23410;SDS011;11878;51.774;7.220;2023-05-10T11:28:55;20.97;;;11.50;;
23410;SDS011;11878;51.774;7.220;2023-05-10T11:31:57;20.20;;;11.27;;
23410;SDS011;11878;51.774;7.220;2023-05-10T11:35:05;21.83;;;10.93;;
23410;SDS011;11878;51.774;7.220;2023-05-10T11:38:09;21.17;;;10.97;;
23410;SDS011;11878;51.774;7.220;2023-05-10T11:41:12;19.67;;;10.03;;
23410;SDS011;11878;51.774;7.220;2023-05-10T11:44:14;26.03;;;10.90;;
23410;SDS011;11878;51.774;7.220;2023-05-10T11:47:17;22.00;;;11.50;;
23410;SDS011;11878;51.774;7.220;2023-05-10T11:50:19;16.53;;;9.13;;
23410;SDS011;11878;51.774;7.220;2023-05-10T11:53:20;19.20;;;10.73;;
23410;SDS011;11878;51.774;7.220;2023-05-10T11:56:24;22.07;;;10.50;;
23410;SDS011;11878;51.774;7.220;2023-05-10T11:59:27;17.07;;;8.97;;
23410;SDS011;11878;51.774;7.220;2023-05-10T12:02:29;14.67;;;9.33;;
23410;SDS011;11878;51.774;7.220;2023-05-10T12:05:32;18.33;;;9.03;;
23410;SDS011;11878;51.774;7.220;2023-05-10T12:08:35;24.43;;;9.20;;
23410;SDS011;11878;51.774;7.220;2023-05-10T12:11:38;16.77;;;8.43;;
23410;SDS011;11878;51.774;7.220;2023-05-10T12:14:48;17.47;;;9.27;;
23410;SDS011;11878;51.774;7.220;2023-05-10T12:17:51;20.10;;;9.80;;
23410;SDS011;11878;51.774;7.220;2023-05-10T12:20:53;17.60;;;9.23;;
23410;SDS011;11878;51.774;7.220;2023-05-10T12:23:59;13.10;;;8.23;;
23410;SDS011;11878;51.774;7.220;2023-05-10T12:27:05;15.23;;;8.70;;
23410;SDS011;11878;51.774;7.220;2023-05-10T12:30:09;15.87;;;7.97;;
23410;SDS011;11878;51.774;7.220;2023-05-10T12:33:13;15.87;;;7.97;;
23410;SDS011;11878;51.774;7.220;2023-05-10T12:36:22;14.87;;;7.87;;
23410;SDS011;11878;51.774;7.220;2023-05-10T12:39:24;13.37;;;7.97;;
23410;SDS011;11878;51.774;7.220;2023-05-10T12:42:26;16.27;;;9.03;;
23410;SDS011;11878;51.774;7.220;2023-05-10T12:45:28;15.80;;;8.63;;
23410;SDS011;11878;51.774;7.220;2023-05-10T12:48:30;16.40;;;8.60;;
23410;SDS011;11878;51.774;7.220;2023-05-10T12:51:32;18.40;;;9.63;;
23410;SDS011;11878;51.774;7.220;2023-05-10T12:54:34;14.63;;;9.00;;
23410;SDS011;11878;51.774;7.220;2023-05-10T12:57:36;17.53;;;9.63;;
23410;SDS011;11878;51.774;7.220;2023-05-10T13:00:38;14.00;;;8.67;;
23410;SDS011;11878;51.774;7.220;2023-05-10T13:03:42;17.07;;;8.97;;
23410;SDS011;11878;51.774;7.220;2023-05-10T13:06:46;17.63;;;9.90;;
23410;SDS011;11878;51.774;7.220;2023-05-10T13:09:48;17.67;;;8.77;;
23410;SDS011;11878;51.774;7.220;2023-05-10T13:12:50;15.30;;;8.40;;
23410;SDS011;11878;51.774;7.220;2023-05-10T13:15:52;14.53;;;9.17;;
23410;SDS011;11878;51.774;7.220;2023-05-10T13:18:54;17.13;;;8.60;;
23410;SDS011;11878;51.774;7.220;2023-05-10T13:21:56;17.47;;;8.80;;
23410;SDS011;11878;51.774;7.220;2023-05-10T13:24:58;15.40;;;8.87;;
23410;SDS011;11878;51.774;7.220;2023-05-10T13:27:59;16.10;;;9.67;;
23410;SDS011;11878;51.774;7.220;2023-05-10T13:31:01;17.00;;;9.50;;
23410;SDS011;11878;51.774;7.220;2023-05-10T13:34:04;13.10;;;8.70;;
23410;SDS011;11878;51.774;7.220;2023-05-10T13:37:06;14.27;;;8.97;;
23410;SDS011;11878;51.774;7.220;2023-05-10T13:40:08;17.47;;;9.40;;
23410;SDS011;11878;51.774;7.220;2023-05-10T13:43:12;13.03;;;8.17;;
23410;SDS011;11878;51.774;7.220;2023-05-10T13:46:13;16.20;;;9.33;;
23410;SDS011;11878;51.774;7.220;2023-05-10T13:49:15;16.97;;;10.50;;
23410;SDS011;11878;51.774;7.220;2023-05-10T13:52:17;17.90;;;9.57;;
23410;SDS011;11878;51.774;7.220;2023-05-10T13:55:19;17.97;;;10.53;;
23410;SDS011;11878;51.774;7.220;2023-05-10T13:58:21;17.50;;;9.40;;
23410;SDS011;11878;51.774;7.220;2023-05-10T14:01:23;15.03;;;8.57;;
23410;SDS011;11878;51.774;7.220;2023-05-10T14:04:25;17.83;;;9.67;;
23410;SDS011;11878;51.774;7.220;2023-05-10T14:07:27;16.23;;;9.53;;
23410;SDS011;11878;51.774;7.220;2023-05-10T14:10:29;16.50;;;9.80;;
23410;SDS011;11878;51.774;7.220;2023-05-10T14:13:31;21.13;;;10.63;;
23410;SDS011;11878;51.774;7.220;2023-05-10T14:16:34;19.27;;;9.67;;
23410;SDS011;11878;51.774;7.220;2023-05-10T14:19:36;17.07;;;9.93;;
23410;SDS011;11878;51.774;7.220;2023-05-10T14:22:37;16.93;;;10.10;;
23410;SDS011;11878;51.774;7.220;2023-05-10T14:25:39;15.70;;;9.53;;
23410;SDS011;11878;51.774;7.220;2023-05-10T14:28:41;16.80;;;9.90;;
23410;SDS011;11878;51.774;7.220;2023-05-10T14:31:43;15.53;;;9.27;;
23410;SDS011;11878;51.774;7.220;2023-05-10T14:34:45;19.10;;;9.20;;
23410;SDS011;11878;51.774;7.220;2023-05-10T14:37:47;14.17;;;8.30;;
23410;SDS011;11878;51.774;7.220;2023-05-10T14:40:49;17.73;;;8.73;;
23410;SDS011;11878;51.774;7.220;2023-05-10T14:43:51;15.77;;;8.27;;
23410;SDS011;11878;51.774;7.220;2023-05-10T14:46:53;16.87;;;8.37;;
23410;SDS011;11878;51.774;7.220;2023-05-10T14:49:56;12.80;;;6.60;;
23410;SDS011;11878;51.774;7.220;2023-05-10T14:52:59;12.77;;;5.63;;
23410;SDS011;11878;51.774;7.220;2023-05-10T14:56:01;9.55;;;4.50;;
23410;SDS011;11878;51.774;7.220;2023-05-10T14:59:04;9.50;;;5.30;;
23410;SDS011;11878;51.774;7.220;2023-05-10T15:02:06;9.40;;;4.90;;
23410;SDS011;11878;51.774;7.220;2023-05-10T15:05:09;10.67;;;5.33;;
23410;SDS011;11878;51.774;7.220;2023-05-10T15:08:14;10.00;;;5.90;;
23410;SDS011;11878;51.774;7.220;2023-05-10T15:11:16;10.63;;;5.57;;
23410;SDS011;11878;51.774;7.220;2023-05-10T15:14:17;9.10;;;5.43;;
23410;SDS011;11878;51.774;7.220;2023-05-10T15:17:19;9.23;;;4.57;;
23410;SDS011;11878;51.774;7.220;2023-05-10T15:20:21;7.20;;;3.30;;
23410;SDS011;11878;51.774;7.220;2023-05-10T15:23:23;8.40;;;3.37;;
23410;SDS011;11878;51.774;7.220;2023-05-10T15:26:25;8.67;;;3.73;;
23410;SDS011;11878;51.774;7.220;2023-05-10T15:29:27;7.70;;;3.83;;
23410;SDS011;11878;51.774;7.220;2023-05-10T15:32:29;9.10;;;4.40;;
23410;SDS011;11878;51.774;7.220;2023-05-10T15:35:31;7.07;;;4.37;;
23410;SDS011;11878;51.774;7.220;2023-05-10T15:38:33;9.20;;;5.10;;
23410;SDS011;11878;51.774;7.220;2023-05-10T15:41:35;11.03;;;5.40;;
23410;SDS011;11878;51.774;7.220;2023-05-10T15:44:37;10.20;;;5.03;;
23410;SDS011;11878;51.774;7.220;2023-05-10T15:47:39;9.03;;;4.60;;
23410;SDS011;11878;51.774;7.220;2023-05-10T15:50:41;10.40;;;5.30;;
23410;SDS011;11878;51.774;7.220;2023-05-10T15:53:43;9.83;;;4.97;;
23410;SDS011;11878;51.774;7.220;2023-05-10T15:57:05;9.20;;;5.30;;
23410;SDS011;11878;51.774;7.220;2023-05-10T16:00:08;9.13;;;4.90;;
23410;SDS011;11878;51.774;7.220;2023-05-10T16:03:14;12.30;;;4.97;;
23410;SDS011;11878;51.774;7.220;2023-05-10T16:06:16;7.90;;;4.67;;
23410;SDS011;11878;51.774;7.220;2023-05-10T16:09:18;10.20;;;5.30;;
23410;SDS011;11878;51.774;7.220;2023-05-10T16:12:20;9.80;;;4.80;;
23410;SDS011;11878;51.774;7.220;2023-05-10T16:15:22;10.53;;;4.63;;
23410;SDS011;11878;51.774;7.220;2023-05-10T16:18:24;9.83;;;4.93;;
23410;SDS011;11878;51.774;7.220;2023-05-10T16:21:26;10.30;;;4.57;;
23410;SDS011;11878;51.774;7.220;2023-05-10T16:24:30;8.77;;;4.77;;
23410;SDS011;11878;51.774;7.220;2023-05-10T16:27:31;9.00;;;4.60;;
23410;SDS011;11878;51.774;7.220;2023-05-10T16:30:33;15.00;;;5.53;;
23410;SDS011;11878;51.774;7.220;2023-05-10T16:33:36;9.97;;;5.10;;
23410;SDS011;11878;51.774;7.220;2023-05-10T16:36:38;11.03;;;5.33;;
23410;SDS011;11878;51.774;7.220;2023-05-10T16:39:39;10.00;;;5.40;;
23410;SDS011;11878;51.774;7.220;2023-05-10T16:42:41;10.00;;;5.77;;
23410;SDS011;11878;51.774;7.220;2023-05-10T16:45:43;11.07;;;5.83;;
23410;SDS011;11878;51.774;7.220;2023-05-10T16:48:45;10.40;;;4.97;;
23410;SDS011;11878;51.774;7.220;2023-05-10T16:51:47;11.20;;;5.90;;
23410;SDS011;11878;51.774;7.220;2023-05-10T16:54:49;12.93;;;6.20;;
23410;SDS011;11878;51.774;7.220;2023-05-10T16:57:51;10.43;;;5.37;;
23410;SDS011;11878;51.774;7.220;2023-05-10T17:00:52;10.67;;;5.57;;
23410;SDS011;11878;51.774;7.220;2023-05-10T17:03:55;12.40;;;6.30;;
23410;SDS011;11878;51.774;7.220;2023-05-10T17:06:57;13.03;;;6.03;;
23410;SDS011;11878;51.774;7.220;2023-05-10T17:09:59;12.03;;;6.00;;
23410;SDS011;11878;51.774;7.220;2023-05-10T17:13:01;11.90;;;6.53;;
23410;SDS011;11878;51.774;7.220;2023-05-10T17:16:03;15.73;;;6.87;;
23410;SDS011;11878;51.774;7.220;2023-05-10T17:19:05;11.23;;;6.13;;
23410;SDS011;11878;51.774;7.220;2023-05-10T17:22:07;13.67;;;5.90;;
23410;SDS011;11878;51.774;7.220;2023-05-10T17:25:10;13.37;;;6.27;;
23410;SDS011;11878;51.774;7.220;2023-05-10T17:28:12;11.47;;;5.77;;
23410;SDS011;11878;51.774;7.220;2023-05-10T17:31:13;11.33;;;4.93;;
23410;SDS011;11878;51.774;7.220;2023-05-10T17:34:16;11.23;;;4.17;;
23410;SDS011;11878;51.774;7.220;2023-05-10T17:37:17;7.60;;;4.70;;
23410;SDS011;11878;51.774;7.220;2023-05-10T17:40:19;6.73;;;3.47;;
23410;SDS011;11878;51.774;7.220;2023-05-10T17:43:21;6.53;;;2.90;;
23410;SDS011;11878;51.774;7.220;2023-05-10T17:46:23;5.30;;;2.70;;
23410;SDS011;11878;51.774;7.220;2023-05-10T17:49:25;7.03;;;2.80;;
23410;SDS011;11878;51.774;7.220;2023-05-10T17:52:28;8.30;;;2.93;;
23410;SDS011;11878;51.774;7.220;2023-05-10T17:55:33;6.13;;;3.07;;
23410;SDS011;11878;51.774;7.220;2023-05-10T17:58:35;8.20;;;4.47;;
23410;SDS011;11878;51.774;7.220;2023-05-10T18:01:38;7.67;;;4.13;;
23410;SDS011;11878;51.774;7.220;2023-05-10T18:04:41;8.23;;;4.30;;
23410;SDS011;11878;51.774;7.220;2023-05-10T18:07:43;9.07;;;4.77;;
23410;SDS011;11878;51.774;7.220;2023-05-10T18:10:45;9.10;;;4.50;;
23410;SDS011;11878;51.774;7.220;2023-05-10T18:13:47;10.13;;;4.67;;
23410;SDS011;11878;51.774;7.220;2023-05-10T18:16:49;10.33;;;4.63;;
23410;SDS011;11878;51.774;7.220;2023-05-10T18:19:51;9.80;;;4.37;;
23410;SDS011;11878;51.774;7.220;2023-05-10T18:22:53;10.20;;;4.70;;
23410;SDS011;11878;51.774;7.220;2023-05-10T18:25:56;8.20;;;4.93;;
23410;SDS011;11878;51.774;7.220;2023-05-10T18:28:58;10.77;;;5.40;;
23410;SDS011;11878;51.774;7.220;2023-05-10T18:32:02;9.10;;;5.03;;
23410;SDS011;11878;51.774;7.220;2023-05-10T18:35:04;14.30;;;6.63;;
23410;SDS011;11878;51.774;7.220;2023-05-10T18:38:07;12.87;;;5.60;;